createdAt,value
2018-12-08T00:01:42.858Z,93.10
2018-12-08T00:04:14.976Z,93.10
2018-12-08T00:06:49.715Z,93.10
2018-12-08T00:09:24.995Z,93.00
2018-12-08T00:11:57.124Z,92.90
2018-12-08T00:14:29.524Z,92.80
2018-12-08T00:17:03.926Z,93.00
2018-12-08T00:19:38.255Z,93.10
2018-12-08T00:22:09.928Z,92.80
2018-12-08T00:24:40.345Z,92.90
2018-12-08T00:27:10.776Z,92.90
2018-12-08T00:29:45.218Z,93.00
2018-12-08T00:32:21.788Z,92.90
2018-12-08T00:35:07.315Z,93.00
2018-12-08T00:37:39.800Z,92.90
2018-12-08T00:40:14.125Z,92.90
2018-12-08T00:42:48.290Z,92.80
2018-12-08T00:45:21.017Z,93.20
2018-12-08T00:47:55.548Z,93.20
2018-12-08T00:50:28.306Z,93.20
2018-12-08T00:53:02.433Z,93.20
2018-12-08T00:55:35.003Z,93.20
2018-12-08T00:58:07.410Z,93.20
2018-12-08T01:00:39.777Z,93.20
2018-12-08T01:03:12.274Z,93.30
2018-12-08T01:05:44.587Z,93.30
2018-12-08T01:08:14.993Z,93.50
2018-12-08T01:10:47.647Z,93.20
2018-12-08T01:13:19.948Z,93.20
2018-12-08T01:15:54.511Z,93.40
2018-12-08T01:18:26.467Z,93.30
2018-12-08T01:20:58.625Z,93.30
2018-12-08T01:23:36.885Z,93.30
2018-12-08T01:26:10.167Z,93.30
2018-12-08T01:28:42.414Z,93.30
2018-12-08T01:31:17.349Z,93.30
2018-12-08T01:33:51.670Z,93.40
2018-12-08T01:36:25.883Z,93.30
2018-12-08T01:38:57.904Z,93.40
2018-12-08T01:41:32.539Z,93.40
2018-12-08T01:44:04.563Z,93.30
2018-12-08T01:46:36.999Z,93.40
2018-12-08T01:49:21.680Z,92.90
2018-12-08T01:51:56.046Z,93.00
2018-12-08T01:54:34.605Z,93.20
2018-12-08T01:57:06.358Z,93.20
2018-12-08T01:59:37.033Z,93.30
2018-12-08T02:02:11.230Z,93.20
2018-12-08T02:04:43.767Z,93.20
2018-12-08T02:07:16.074Z,93.30
2018-12-08T02:09:50.124Z,93.40
2018-12-08T02:12:22.226Z,93.20
2018-12-08T02:14:54.765Z,93.30
2018-12-08T02:17:25.441Z,93.30
2018-12-08T02:20:00.123Z,93.40
2018-12-08T02:22:36.026Z,93.00
2018-12-08T02:25:10.063Z,93.30
2018-12-08T02:27:42.201Z,93.50
2018-12-08T02:30:14.892Z,93.50
2018-12-08T02:32:49.358Z,93.40
2018-12-08T02:35:21.213Z,93.40
2018-12-08T02:37:57.092Z,93.40
2018-12-08T02:40:29.767Z,93.10
2018-12-08T02:43:01.756Z,93.10
2018-12-08T02:45:34.094Z,93.30
2018-12-08T02:48:06.119Z,93.30
2018-12-08T02:50:40.861Z,93.10
2018-12-08T02:53:12.865Z,93.40
2018-12-08T02:55:47.268Z,93.40
2018-12-08T02:58:19.768Z,93.60
2018-12-08T03:00:55.179Z,93.60
2018-12-08T03:03:27.438Z,93.20
2018-12-08T03:05:59.524Z,93.40
2018-12-08T03:08:31.607Z,93.60
2018-12-08T03:11:03.844Z,93.50
2018-12-08T03:13:36.046Z,93.60
2018-12-08T03:16:10.352Z,93.50
2018-12-08T03:18:42.425Z,93.60
2018-12-08T03:21:23.140Z,93.70
2018-12-08T03:23:55.334Z,93.90
2018-12-08T03:26:29.506Z,93.90
2018-12-08T03:29:04.698Z,93.70
2018-12-08T03:31:43.792Z,93.80
2018-12-08T03:34:18.008Z,93.90
2018-12-08T03:36:50.654Z,93.90
2018-12-08T03:39:26.771Z,94.10
2018-12-08T03:42:00.943Z,93.90
2018-12-08T03:44:39.146Z,93.80
2018-12-08T03:47:13.711Z,93.70
2018-12-08T03:49:45.518Z,94.00
2018-12-08T03:52:17.511Z,93.90
2018-12-08T03:54:49.381Z,93.90
2018-12-08T03:57:24.093Z,93.80
2018-12-08T03:59:58.750Z,93.90
2018-12-08T04:02:37.060Z,93.70
2018-12-08T04:05:07.736Z,93.90
2018-12-08T04:07:40.963Z,93.80
2018-12-08T04:10:13.726Z,94.10
2018-12-08T04:12:47.695Z,94.30
2018-12-08T04:15:19.359Z,94.30
2018-12-08T04:17:51.997Z,94.10
2018-12-08T04:20:26.721Z,93.90
2018-12-08T04:23:02.055Z,94.00
2018-12-08T04:28:39.482Z,94.20
2018-12-08T04:31:12.062Z,94.10
2018-12-08T04:33:44.270Z,94.20
2018-12-08T04:36:16.625Z,94.20
2018-12-08T04:38:51.103Z,94.00
2018-12-08T04:41:23.626Z,94.00
2018-12-08T04:43:57.864Z,93.70
2018-12-08T04:46:29.806Z,93.60
2018-12-08T04:52:00.879Z,93.80
2018-12-08T04:54:39.385Z,93.80
2018-12-08T04:57:13.646Z,93.90
2018-12-08T04:59:45.470Z,94.00
2018-12-08T05:02:18.230Z,93.90
2018-12-08T05:04:57.250Z,93.60
2018-12-08T05:07:29.485Z,93.60
2018-12-08T05:10:05.269Z,93.40
2018-12-08T05:12:39.308Z,93.50
2018-12-08T05:15:11.895Z,94.10
2018-12-08T05:17:48.490Z,93.80
2018-12-08T05:20:20.353Z,93.80
2018-12-08T05:22:52.514Z,93.70
2018-12-08T05:25:28.276Z,93.80
2018-12-08T05:28:00.173Z,93.70
2018-12-08T05:30:32.221Z,93.80
2018-12-08T05:33:06.947Z,93.90
2018-12-08T05:35:38.831Z,93.50
2018-12-08T05:38:13.293Z,93.70
2018-12-08T05:40:47.378Z,93.60
2018-12-08T05:43:21.638Z,93.00
2018-12-08T05:45:55.730Z,93.40
2018-12-08T05:48:27.380Z,93.40
2018-12-08T05:50:57.984Z,93.60
2018-12-08T05:53:32.937Z,93.60
2018-12-08T05:56:03.559Z,93.40
2018-12-08T05:58:39.655Z,93.60
2018-12-08T06:01:18.730Z,93.10
2018-12-08T06:04:03.365Z,93.50
2018-12-08T06:06:34.061Z,93.80
2018-12-08T06:09:07.535Z,93.80
2018-12-08T06:11:39.534Z,93.90
2018-12-08T06:14:14.094Z,93.60
2018-12-08T06:19:07.321Z,93.80
2018-12-08T06:21:43.368Z,94.00
2018-12-08T06:24:16.273Z,94.00
2018-12-08T06:27:11.548Z,93.60
2018-12-08T06:29:45.980Z,93.70
2018-12-08T06:32:18.598Z,94.00
2018-12-08T06:34:50.488Z,94.00
2018-12-08T06:37:23.345Z,93.90
2018-12-08T06:39:57.627Z,94.20
2018-12-08T06:42:33.258Z,94.60
2018-12-08T06:45:07.365Z,94.50
2018-12-08T06:47:42.423Z,94.60
2018-12-08T06:50:14.269Z,94.70
2018-12-08T06:52:46.938Z,94.60
2018-12-08T06:55:21.023Z,94.70
2018-12-08T06:57:56.079Z,94.50
2018-12-08T07:00:28.809Z,94.70
2018-12-08T07:03:00.966Z,94.70
2018-12-08T07:05:32.826Z,94.70
2018-12-08T07:08:07.368Z,94.70
2018-12-08T07:13:38.930Z,94.70
2018-12-08T07:16:19.301Z,94.80
2018-12-08T07:18:54.232Z,94.50
2018-12-08T07:21:26.128Z,94.50
2018-12-08T07:24:00.292Z,94.40
2018-12-08T07:26:34.914Z,94.30
2018-12-08T07:29:05.841Z,94.10
2018-12-08T07:31:38.303Z,94.20
2018-12-08T07:34:12.631Z,94.20
2018-12-08T07:36:44.669Z,94.40
2018-12-08T07:39:16.827Z,94.70
2018-12-08T07:41:48.998Z,94.70
2018-12-08T07:44:21.628Z,94.40
2018-12-08T07:46:53.479Z,94.70
2018-12-08T07:49:25.523Z,94.70
2018-12-08T07:51:57.904Z,94.90
2018-12-08T07:54:32.501Z,95.00
2018-12-08T07:57:11.563Z,95.20
2018-12-08T07:59:46.472Z,95.20
2018-12-08T08:02:25.379Z,95.20
2018-12-08T08:04:59.376Z,95.20
2018-12-08T08:07:31.840Z,95.20
2018-12-08T08:10:05.233Z,95.40
2018-12-08T08:12:37.839Z,95.30
2018-12-08T08:15:10.240Z,95.30
2018-12-08T08:17:42.712Z,95.40
2018-12-08T08:20:17.194Z,95.60
2018-12-08T08:22:49.917Z,95.60
2018-12-08T08:25:22.366Z,95.50
2018-12-08T08:27:54.852Z,95.50
2018-12-08T08:30:29.963Z,95.70
2018-12-08T08:33:02.486Z,95.70
2018-12-08T08:35:35.044Z,95.70
2018-12-08T08:38:09.478Z,95.60
2018-12-08T08:40:41.479Z,95.70
2018-12-08T08:43:15.854Z,95.70
2018-12-08T08:45:51.002Z,95.70
2018-12-08T08:48:23.658Z,96.00
2018-12-08T08:50:59.333Z,96.00
2018-12-08T08:53:34.019Z,96.20
2018-12-08T08:56:07.080Z,95.80
2018-12-08T08:58:41.101Z,96.10
2018-12-08T09:01:13.123Z,95.90
2018-12-08T09:03:45.392Z,95.70
2018-12-08T09:06:17.610Z,95.90
2018-12-08T09:08:49.767Z,96.00
2018-12-08T09:11:25.050Z,96.00
2018-12-08T09:13:59.987Z,96.10
2018-12-08T09:16:34.256Z,96.00
2018-12-08T09:19:07.038Z,96.00
2018-12-08T09:21:41.452Z,96.10
2018-12-08T09:24:13.489Z,96.40
2018-12-08T09:26:45.729Z,96.40
2018-12-08T09:29:25.149Z,96.50
2018-12-08T09:31:58.222Z,96.40
2018-12-08T09:34:32.571Z,96.50
2018-12-08T09:37:05.511Z,96.30
2018-12-08T09:39:37.564Z,96.10
2018-12-08T09:45:14.452Z,96.10
2018-12-08T09:47:47.357Z,96.20
2018-12-08T09:50:21.837Z,96.40
2018-12-08T09:53:02.220Z,96.50
2018-12-08T09:55:34.867Z,96.60
2018-12-08T09:58:17.129Z,96.50
2018-12-08T10:00:50.508Z,96.50
2018-12-08T10:03:22.386Z,96.50
2018-12-08T10:05:54.837Z,96.50
2018-12-08T10:08:33.078Z,96.40
2018-12-08T10:11:07.728Z,96.40
2018-12-08T10:13:41.709Z,96.40
2018-12-08T10:16:13.913Z,96.40
2018-12-08T10:18:48.341Z,96.30
2018-12-08T10:21:20.202Z,96.20
2018-12-08T10:23:54.573Z,96.30
2018-12-08T10:26:30.977Z,96.20
2018-12-08T10:29:01.729Z,96.30
2018-12-08T10:31:36.107Z,96.50
2018-12-08T10:34:20.660Z,96.40
2018-12-08T10:36:55.454Z,96.40
2018-12-08T10:39:41.786Z,96.40
2018-12-08T10:42:19.996Z,96.60
2018-12-08T10:44:54.092Z,96.20
2018-12-08T10:47:38.428Z,96.30
2018-12-08T10:50:11.461Z,96.10
2018-12-08T10:52:43.357Z,95.80
2018-12-08T10:55:13.756Z,96.00
2018-12-08T10:57:46.316Z,96.20
2018-12-08T11:00:23.781Z,96.10
2018-12-08T11:03:02.325Z,96.00
2018-12-08T11:05:37.032Z,96.00
2018-12-08T11:08:07.646Z,96.20
2018-12-08T11:13:58.921Z,96.20
2018-12-08T11:16:37.732Z,96.40
2018-12-08T11:19:13.807Z,96.40
2018-12-08T11:21:44.436Z,96.50
2018-12-08T11:24:15.205Z,96.60
2018-12-08T11:26:47.070Z,96.70
2018-12-08T11:29:21.463Z,96.70
2018-12-08T11:31:57.764Z,96.70
2018-12-08T11:34:31.864Z,96.80
2018-12-08T11:37:03.792Z,96.80
2018-12-08T11:39:39.677Z,96.70
2018-12-08T11:42:14.591Z,96.70
2018-12-08T11:44:47.682Z,96.70
2018-12-08T11:47:22.092Z,96.80
2018-12-08T11:49:56.245Z,96.80
2018-12-08T11:52:30.238Z,96.70
2018-12-08T11:55:03.040Z,96.70
2018-12-08T11:57:35.166Z,96.80
2018-12-08T12:00:09.453Z,96.80
2018-12-08T12:02:43.692Z,97.00
2018-12-08T12:05:22.070Z,96.80
2018-12-08T12:08:06.475Z,96.80
2018-12-08T12:10:41.198Z,96.70
2018-12-08T12:13:24.250Z,96.70
2018-12-08T12:15:56.362Z,96.60
2018-12-08T12:18:28.618Z,96.50
2018-12-08T12:23:32.414Z,96.40
2018-12-08T12:26:04.276Z,96.50
2018-12-08T12:28:36.449Z,96.50
2018-12-08T12:31:10.919Z,96.60
2018-12-08T12:33:43.231Z,96.60
2018-12-08T12:36:14.264Z,96.70
2018-12-08T12:38:48.273Z,96.60
2018-12-08T12:41:28.654Z,96.10
2018-12-08T12:43:59.287Z,96.50
2018-12-08T12:46:33.689Z,96.40
2018-12-08T12:49:06.706Z,96.50
2018-12-08T12:51:40.926Z,96.40
2018-12-08T12:54:17.802Z,96.40
2018-12-08T12:56:52.431Z,96.40
2018-12-08T12:59:24.349Z,96.70
2018-12-08T13:01:58.628Z,96.70
2018-12-08T13:04:32.764Z,96.50
2018-12-08T13:07:05.271Z,96.30
2018-12-08T13:09:37.843Z,96.30
2018-12-08T13:12:12.320Z,96.40
2018-12-08T13:14:45.020Z,96.40
2018-12-08T13:17:17.530Z,96.20
2018-12-08T13:19:49.453Z,96.10
2018-12-08T13:22:24.139Z,96.10
2018-12-08T13:25:06.940Z,96.00
2018-12-08T13:27:39.704Z,96.20
2018-12-08T13:30:14.003Z,96.10
2018-12-08T13:32:50.670Z,95.90
2018-12-08T13:35:59.444Z,95.90
2018-12-08T13:38:30.135Z,96.20
2018-12-08T13:41:04.500Z,96.20
2018-12-08T13:43:38.968Z,96.00
2018-12-08T13:46:13.025Z,96.10
2018-12-08T13:48:45.022Z,96.10
2018-12-08T13:51:17.359Z,96.20
2018-12-08T13:53:51.786Z,96.20
2018-12-08T13:56:23.812Z,96.00
2018-12-08T13:58:56.124Z,96.00
2018-12-08T14:01:30.618Z,96.20
2018-12-08T14:04:04.726Z,96.20
2018-12-08T14:06:38.988Z,96.20
2018-12-08T14:09:12.924Z,96.30
2018-12-08T14:11:53.707Z,96.10
2018-12-08T14:14:28.610Z,96.00
2018-12-08T14:16:59.436Z,96.00
2018-12-08T14:19:33.766Z,95.90
2018-12-08T14:22:06.090Z,96.00
2018-12-08T14:24:38.665Z,95.70
2018-12-08T14:27:10.759Z,96.00
2018-12-08T14:29:45.493Z,96.00
2018-12-08T14:32:20.419Z,96.10
2018-12-08T14:34:51.308Z,95.50
2018-12-08T14:37:25.761Z,95.60
2018-12-08T14:39:57.660Z,95.40
2018-12-08T14:42:36.434Z,95.90
2018-12-08T14:45:13.337Z,95.90
2018-12-08T14:47:47.325Z,95.60
2018-12-08T14:50:22.733Z,95.70
2018-12-08T14:52:56.812Z,95.50
2018-12-08T14:55:28.939Z,95.60
2018-12-08T14:58:03.943Z,95.60
2018-12-08T15:00:36.673Z,95.40
2018-12-08T15:03:08.979Z,95.60
2018-12-08T15:05:43.185Z,95.60
2018-12-08T15:08:13.250Z,95.60
2018-12-08T15:10:45.750Z,95.60
2018-12-08T15:13:17.866Z,95.70
2018-12-08T15:15:49.901Z,95.60
2018-12-08T15:18:25.438Z,95.70
2018-12-08T15:21:03.828Z,95.80
2018-12-08T15:23:38.206Z,95.70
2018-12-08T15:26:13.067Z,95.80
2018-12-08T15:28:49.993Z,95.80
2018-12-08T15:31:24.343Z,95.70
2018-12-08T15:33:58.672Z,95.60
2018-12-08T15:36:31.634Z,95.30
2018-12-08T15:39:06.899Z,95.50
2018-12-08T15:41:38.982Z,95.60
2018-12-08T15:44:10.900Z,95.40
2018-12-08T15:46:43.374Z,94.90
2018-12-08T15:49:16.435Z,95.00
2018-12-08T15:51:55.768Z,95.30
2018-12-08T15:54:26.363Z,95.20
2018-12-08T15:57:00.698Z,95.30
2018-12-08T15:59:34.851Z,95.20
2018-12-08T16:02:10.574Z,95.10
2018-12-08T16:04:45.725Z,95.10
2018-12-08T16:07:18.128Z,94.80
2018-12-08T16:09:54.889Z,95.10
2018-12-08T16:12:27.587Z,95.00
2018-12-08T16:15:00.009Z,95.00
2018-12-08T16:17:32.072Z,95.10
2018-12-08T16:20:08.119Z,95.10
2018-12-08T16:22:40.672Z,95.20
2018-12-08T16:25:15.274Z,95.30
2018-12-08T16:27:52.531Z,95.30
2018-12-08T16:30:27.264Z,95.30
2018-12-08T16:33:01.514Z,95.30
2018-12-08T16:35:33.886Z,95.40
2018-12-08T16:38:08.203Z,95.40
2018-12-08T16:40:42.687Z,95.50
2018-12-08T16:43:14.682Z,95.50
2018-12-08T16:45:47.056Z,95.50
2018-12-08T16:48:21.475Z,95.30
2018-12-08T16:50:55.795Z,95.40
2018-12-08T16:53:30.133Z,95.30
2018-12-08T16:56:07.474Z,95.40
2018-12-08T16:58:41.655Z,95.30
2018-12-08T17:01:13.735Z,95.30
2018-12-08T17:03:47.980Z,95.30
2018-12-08T17:06:22.265Z,95.20
2018-12-08T17:08:54.257Z,94.70
2018-12-08T17:11:26.681Z,94.90
2018-12-08T17:14:00.920Z,94.90
2018-12-08T17:16:32.959Z,94.80
2018-12-08T17:19:07.636Z,94.50
2018-12-08T17:21:42.572Z,94.50
2018-12-08T17:24:14.581Z,94.00
2018-12-08T17:26:46.890Z,94.00
2018-12-08T17:29:21.270Z,94.10
2018-12-08T17:31:53.398Z,94.10
2018-12-08T17:34:27.954Z,93.70
2018-12-08T17:37:02.082Z,93.90
2018-12-08T17:39:40.761Z,93.80
2018-12-08T17:42:15.808Z,94.20
2018-12-08T17:44:46.610Z,94.10
2018-12-08T17:47:18.413Z,94.10
2018-12-08T17:49:50.935Z,94.10
2018-12-08T17:52:29.378Z,93.90
2018-12-08T17:55:01.800Z,94.20
2018-12-08T17:57:34.123Z,94.30
2018-12-08T18:00:07.018Z,94.00
2018-12-08T18:02:39.394Z,94.00
2018-12-08T18:05:11.652Z,94.10
2018-12-08T18:07:43.865Z,94.20
2018-12-08T18:10:20.332Z,94.10
2018-12-08T18:12:54.477Z,94.10
2018-12-08T18:15:28.605Z,94.30
2018-12-08T18:18:00.599Z,94.30
2018-12-08T18:20:32.789Z,94.20
2018-12-08T18:23:04.909Z,94.20
2018-12-08T18:25:39.593Z,94.20
2018-12-08T18:28:28.612Z,94.30
2018-12-08T18:31:00.951Z,94.30
2018-12-08T18:33:32.988Z,94.00
2018-12-08T18:36:07.491Z,93.90
2018-12-08T18:38:41.585Z,94.00
2018-12-08T18:41:15.979Z,94.00
2018-12-08T18:43:50.990Z,94.10
2018-12-08T18:46:23.594Z,94.30
2018-12-08T18:48:55.640Z,94.30
2018-12-08T18:51:30.394Z,94.20
2018-12-08T18:54:04.843Z,94.30
2018-12-08T18:56:38.881Z,94.30
2018-12-08T18:59:15.519Z,94.30
2018-12-08T19:01:49.747Z,94.30
2018-12-08T19:04:24.641Z,94.30
2018-12-08T19:06:57.309Z,94.40
2018-12-08T19:09:31.701Z,94.30
2018-12-08T19:12:03.648Z,94.40
2018-12-08T19:14:42.243Z,94.50
2018-12-08T19:17:16.727Z,94.60
2018-12-08T19:19:49.576Z,94.60
2018-12-08T19:22:23.903Z,94.40
2018-12-08T19:24:58.244Z,94.40
2018-12-08T19:27:30.284Z,94.30
2018-12-08T19:30:02.019Z,94.10
2018-12-08T19:32:35.130Z,94.30
2018-12-08T19:37:42.288Z,94.60
2018-12-08T19:40:17.424Z,94.50
2018-12-08T19:42:52.526Z,94.20
2018-12-08T19:45:23.309Z,94.50
2018-12-08T19:47:57.605Z,94.50
2018-12-08T19:50:29.907Z,94.40
2018-12-08T19:53:04.701Z,94.60
2018-12-08T19:55:36.625Z,94.40
2018-12-08T19:58:14.819Z,94.40
2018-12-08T20:00:46.718Z,94.80
2018-12-08T20:03:19.524Z,94.50
2018-12-08T20:05:53.569Z,94.40
2018-12-08T20:08:27.720Z,94.60
2018-12-08T20:11:04.347Z,95.20
2018-12-08T20:13:36.187Z,95.10
2018-12-08T20:16:08.299Z,95.20
2018-12-08T20:18:42.709Z,95.40
2018-12-08T20:21:15.605Z,95.40
2018-12-08T20:23:54.019Z,95.40
2018-12-08T20:26:26.094Z,95.40
2018-12-08T20:29:01.853Z,95.60
2018-12-08T20:31:34.521Z,95.40
2018-12-08T20:34:09.253Z,95.30
2018-12-08T20:36:42.148Z,95.60
2018-12-08T20:39:14.436Z,95.70
2018-12-08T20:41:46.761Z,95.80
2018-12-08T20:44:19.135Z,95.80
2018-12-08T20:46:53.650Z,95.60
2018-12-08T20:49:29.891Z,95.60
2018-12-08T21:01:14.899Z,95.80
2018-12-08T21:03:46.881Z,95.80
2018-12-08T21:06:19.185Z,95.90
2018-12-08T21:08:53.632Z,95.60
2018-12-08T21:11:25.611Z,95.70
2018-12-08T21:13:59.371Z,96.00
2018-12-08T21:16:35.667Z,95.90
2018-12-08T21:19:09.874Z,95.70
2018-12-08T21:21:42.068Z,95.80
2018-12-08T21:24:16.467Z,95.90
2018-12-08T21:26:48.764Z,95.90
2018-12-08T21:29:23.148Z,96.20
2018-12-08T21:31:57.293Z,96.10
2018-12-08T21:34:29.254Z,96.10
2018-12-08T21:37:01.409Z,96.00
2018-12-08T21:39:35.940Z,96.50
2018-12-08T21:42:08.613Z,96.50
2018-12-08T21:44:43.116Z,96.40
2018-12-08T21:47:18.002Z,96.50
2018-12-08T21:49:52.469Z,96.40
2018-12-08T21:52:23.525Z,96.70
2018-12-08T21:54:55.359Z,97.00
2018-12-08T21:57:29.513Z,97.20
2018-12-08T22:00:01.474Z,97.00
2018-12-08T22:02:31.952Z,97.20
2018-12-08T22:05:04.877Z,97.30
2018-12-08T22:07:36.792Z,97.40
2018-12-08T22:10:08.971Z,97.20
2018-12-08T22:12:41.033Z,97.50
2018-12-08T22:15:16.861Z,97.70
2018-12-08T22:17:49.575Z,97.90
2018-12-08T22:20:21.925Z,97.80
2018-12-08T22:22:52.269Z,97.80
2018-12-08T22:25:26.594Z,97.60
2018-12-08T22:28:00.984Z,97.40
2018-12-08T22:30:33.005Z,97.60
2018-12-08T22:33:12.040Z,97.70
2018-12-08T22:35:46.546Z,97.50
2018-12-08T22:38:18.937Z,97.50
2018-12-08T22:40:50.799Z,97.50
2018-12-08T22:43:25.417Z,97.80
2018-12-08T22:46:02.594Z,97.80
2018-12-08T22:48:34.090Z,97.70
2018-12-08T22:51:06.547Z,97.50
2018-12-08T22:53:38.796Z,97.70
2018-12-08T22:56:13.327Z,97.70
2018-12-08T22:58:47.469Z,97.60
2018-12-08T23:01:19.390Z,97.60
2018-12-08T23:03:51.560Z,97.60
2018-12-08T23:06:25.738Z,98.10
2018-12-08T23:08:58.509Z,97.80
2018-12-08T23:11:30.706Z,98.00
2018-12-08T23:14:03.453Z,98.00
2018-12-08T23:16:35.692Z,97.80
2018-12-08T23:19:09.988Z,97.80
2018-12-08T23:21:44.338Z,97.70
2018-12-08T23:24:17.337Z,97.60
2018-12-08T23:29:45.626Z,97.60
2018-12-08T23:32:17.793Z,97.20
2018-12-08T23:34:49.721Z,97.30
2018-12-08T23:37:21.819Z,97.20
2018-12-08T23:39:54.114Z,96.90
2018-12-08T23:42:29.793Z,96.70
2018-12-08T23:45:06.601Z,96.30
2018-12-08T23:47:38.742Z,96.40
2018-12-08T23:50:11.087Z,96.70
2018-12-08T23:52:43.203Z,96.80
2018-12-08T23:55:15.651Z,96.60
2018-12-08T23:57:50.019Z,96.70
